createdAt,value
2023-05-14T00:00:56.822Z,16.05
2023-05-14T00:01:56.858Z,16.02
2023-05-14T00:02:56.877Z,16.02
2023-05-14T00:03:56.951Z,16.01
2023-05-14T00:04:56.869Z,16.08
2023-05-14T00:05:56.840Z,15.98
2023-05-14T00:06:56.825Z,15.86
2023-05-14T00:07:56.837Z,16.02
2023-05-14T00:08:56.813Z,15.98
2023-05-14T00:09:56.809Z,16.00
2023-05-14T00:10:56.802Z,15.95
2023-05-14T00:11:56.817Z,15.86
2023-05-14T00:12:56.810Z,15.94
2023-05-14T00:13:56.816Z,15.91
2023-05-14T00:14:56.811Z,15.91
2023-05-14T00:15:56.863Z,15.91
2023-05-14T00:16:56.810Z,15.90
2023-05-14T00:17:56.839Z,15.86
2023-05-14T00:18:56.809Z,15.86
2023-05-14T00:19:56.800Z,15.91
2023-05-14T00:20:56.796Z,15.80
2023-05-14T00:21:56.784Z,15.80
2023-05-14T00:22:56.809Z,15.90
2023-05-14T00:23:56.800Z,15.84
2023-05-14T00:24:56.787Z,15.80
2023-05-14T00:25:56.792Z,15.88
2023-05-14T00:26:56.785Z,15.83
2023-05-14T00:27:56.786Z,15.77
2023-05-14T00:28:56.787Z,15.80
2023-05-14T00:29:56.782Z,15.82
2023-05-14T00:30:56.814Z,15.79
2023-05-14T00:31:56.772Z,15.79
2023-05-14T00:32:56.915Z,15.83
2023-05-14T00:33:56.778Z,15.83
2023-05-14T00:34:56.777Z,15.80
2023-05-14T00:35:56.771Z,15.70
2023-05-14T00:36:56.767Z,15.76
2023-05-14T00:37:56.768Z,15.72
2023-05-14T00:38:56.762Z,15.72
2023-05-14T00:39:56.759Z,15.65
2023-05-14T00:40:56.781Z,15.65
2023-05-14T00:41:56.773Z,15.65
2023-05-14T00:42:56.800Z,15.58
2023-05-14T00:43:56.756Z,15.64
2023-05-14T00:44:56.760Z,15.59
2023-05-14T00:45:56.751Z,15.64
2023-05-14T00:46:56.819Z,15.61
2023-05-14T00:47:56.800Z,15.64
2023-05-14T00:48:56.751Z,15.64
2023-05-14T00:49:56.741Z,15.67
2023-05-14T00:50:56.766Z,15.59
2023-05-14T00:51:56.740Z,15.57
2023-05-14T00:52:56.747Z,15.55
2023-05-14T00:53:56.759Z,15.58
2023-05-14T00:54:56.776Z,15.55
2023-05-14T00:55:56.734Z,15.61
2023-05-14T00:56:56.735Z,15.61
2023-05-14T00:57:56.732Z,15.59
2023-05-14T00:58:56.733Z,15.54
2023-05-14T00:59:56.731Z,15.55
2023-05-14T01:00:56.791Z,15.55
2023-05-14T01:01:56.718Z,15.58
2023-05-14T01:02:56.874Z,15.58
2023-05-14T01:03:56.794Z,15.59
2023-05-14T01:04:56.732Z,15.59
2023-05-14T01:05:56.738Z,15.55
2023-05-14T01:06:56.720Z,15.52
2023-05-14T01:07:56.711Z,15.49
2023-05-14T01:08:56.716Z,15.54
2023-05-14T01:09:56.712Z,15.49
2023-05-14T01:10:56.711Z,15.52
2023-05-14T01:11:56.707Z,15.55
2023-05-14T01:12:56.713Z,15.47
2023-05-14T01:13:56.700Z,15.49
2023-05-14T01:14:56.720Z,15.40
2023-05-14T01:15:56.708Z,15.44
2023-05-14T01:16:56.780Z,15.44
2023-05-14T01:17:56.727Z,15.47
2023-05-14T01:18:56.770Z,15.52
2023-05-14T01:19:56.693Z,15.52
2023-05-14T01:20:56.684Z,15.54
2023-05-14T01:21:56.704Z,15.49
2023-05-14T01:22:56.691Z,15.44
2023-05-14T01:23:56.686Z,15.49
2023-05-14T01:24:56.684Z,15.54
2023-05-14T01:25:56.683Z,15.46
2023-05-14T01:26:56.677Z,15.51
2023-05-14T01:27:56.674Z,15.47
2023-05-14T01:28:56.674Z,15.55
2023-05-14T01:29:56.676Z,15.46
2023-05-14T01:30:56.672Z,15.52
2023-05-14T01:31:56.686Z,15.47
2023-05-14T01:32:56.751Z,15.52
2023-05-14T01:33:56.658Z,15.43
2023-05-14T01:34:56.674Z,15.52
2023-05-14T01:35:56.679Z,15.51
2023-05-14T01:36:56.661Z,15.54
2023-05-14T01:37:56.653Z,15.52
2023-05-14T01:38:56.658Z,15.49
2023-05-14T01:39:56.649Z,15.43
2023-05-14T01:40:57.471Z,15.44
2023-05-14T01:41:56.652Z,15.49
2023-05-14T01:42:56.691Z,15.49
2023-05-14T01:43:56.640Z,15.49
2023-05-14T01:44:56.640Z,15.46
2023-05-14T01:45:56.789Z,15.46
2023-05-14T01:46:56.634Z,15.47
2023-05-14T01:47:56.675Z,15.47
2023-05-14T01:48:56.635Z,15.51
2023-05-14T01:49:56.639Z,15.42
2023-05-14T01:50:56.638Z,15.47
2023-05-14T01:51:56.630Z,15.49
2023-05-14T01:52:56.945Z,15.52
2023-05-14T01:53:56.632Z,15.35
2023-05-14T01:54:56.638Z,15.35
2023-05-14T01:55:56.614Z,15.43
2023-05-14T01:56:56.620Z,15.39
2023-05-14T01:57:56.625Z,15.49
2023-05-14T01:58:56.643Z,15.47
2023-05-14T01:59:56.608Z,15.49
2023-05-14T02:00:56.611Z,15.46
2023-05-14T02:01:56.694Z,15.35
2023-05-14T02:02:56.672Z,15.37
2023-05-14T02:03:56.657Z,15.43
2023-05-14T02:04:56.610Z,15.46
2023-05-14T02:05:56.614Z,15.35
2023-05-14T02:06:56.607Z,15.43
2023-05-14T02:07:56.601Z,15.44
2023-05-14T02:08:56.605Z,15.47
2023-05-14T02:09:56.590Z,15.51
2023-05-14T02:10:56.598Z,15.47
2023-05-14T02:11:56.594Z,15.51
2023-05-14T02:12:56.586Z,15.43
2023-05-14T02:13:56.592Z,15.54
2023-05-14T02:14:56.613Z,15.46
2023-05-14T02:15:56.609Z,15.44
2023-05-14T02:16:56.589Z,15.51
2023-05-14T02:17:56.628Z,15.49
2023-05-14T02:18:56.666Z,15.52
2023-05-14T02:19:56.583Z,15.51
2023-05-14T02:20:56.581Z,15.55
2023-05-14T02:21:56.593Z,15.51
2023-05-14T02:22:56.587Z,15.58
2023-05-14T02:23:56.570Z,15.59
2023-05-14T02:24:56.584Z,15.62
2023-05-14T02:25:57.498Z,15.61
2023-05-14T02:26:56.575Z,15.58
2023-05-14T02:27:56.570Z,15.58
2023-05-14T02:28:56.571Z,15.58
2023-05-14T02:29:56.564Z,15.64
2023-05-14T02:30:56.563Z,15.72
2023-05-14T02:31:56.893Z,15.61
2023-05-14T02:32:56.616Z,15.68
2023-05-14T02:33:56.554Z,15.67
2023-05-14T02:34:56.573Z,15.72
2023-05-14T02:35:56.570Z,15.70
2023-05-14T02:36:56.562Z,15.72
2023-05-14T02:37:56.564Z,15.70
2023-05-14T02:38:56.565Z,15.68
2023-05-14T02:39:56.558Z,15.62
2023-05-14T02:40:56.550Z,15.58
2023-05-14T02:41:56.562Z,15.59
2023-05-14T02:42:56.554Z,15.61
2023-05-14T02:43:56.547Z,15.62
2023-05-14T02:44:56.551Z,15.59
2023-05-14T02:45:56.534Z,15.64
2023-05-14T02:46:56.568Z,15.65
2023-05-14T02:47:56.592Z,15.59
2023-05-14T02:48:56.541Z,15.59
2023-05-14T02:49:56.529Z,15.59
2023-05-14T02:50:56.542Z,15.58
2023-05-14T02:51:56.537Z,15.59
2023-05-14T02:52:56.541Z,15.55
2023-05-14T02:53:56.520Z,15.61
2023-05-14T02:54:56.608Z,15.61
2023-05-14T02:55:56.530Z,15.61
2023-05-14T02:56:56.572Z,15.54
2023-05-14T02:57:56.516Z,15.54
2023-05-14T02:58:56.517Z,15.55
2023-05-14T02:59:56.528Z,15.54
2023-05-14T03:00:56.573Z,15.58
2023-05-14T03:01:56.566Z,15.61
2023-05-14T03:02:56.559Z,15.55
2023-05-14T03:03:56.504Z,15.58
2023-05-14T03:04:56.516Z,15.62
2023-05-14T03:05:56.514Z,15.58
2023-05-14T03:06:56.512Z,15.61
2023-05-14T03:07:56.496Z,15.73
2023-05-14T03:08:56.509Z,15.67
2023-05-14T03:09:56.503Z,15.70
2023-05-14T03:10:56.515Z,15.68
2023-05-14T03:11:56.507Z,15.70
2023-05-14T03:12:56.529Z,15.70
2023-05-14T03:13:56.491Z,15.65
2023-05-14T03:14:56.517Z,15.68
2023-05-14T03:15:56.496Z,15.70
2023-05-14T03:17:03.878Z,15.65
2023-05-14T03:19:00.631Z,15.75
2023-05-14T03:20:00.568Z,15.76
2023-05-14T03:22:04.555Z,15.70
2023-05-14T03:23:04.540Z,15.70
2023-05-14T03:25:08.569Z,15.64
2023-05-14T03:26:08.512Z,15.68
2023-05-14T03:28:01.436Z,15.73
2023-05-14T03:29:01.426Z,15.70
2023-05-14T03:31:05.551Z,15.67
2023-05-14T03:32:05.436Z,15.58
2023-05-14T03:33:58.579Z,15.55
2023-05-14T03:34:58.576Z,15.55
2023-05-14T03:37:02.592Z,15.61
2023-05-14T03:38:02.571Z,15.57
2023-05-14T03:39:02.553Z,15.67
2023-05-14T03:40:02.582Z,15.62
2023-05-14T03:41:02.548Z,15.62
2023-05-14T03:42:02.564Z,15.62
2023-05-14T03:43:02.555Z,15.55
2023-05-14T03:44:02.550Z,15.62
2023-05-14T03:45:02.551Z,15.65
2023-05-14T03:46:02.540Z,15.58
2023-05-14T03:47:02.551Z,15.65
2023-05-14T03:48:02.725Z,15.64
2023-05-14T03:49:02.669Z,15.64
2023-05-14T03:50:02.548Z,15.58
2023-05-14T03:51:02.533Z,15.68
2023-05-14T03:52:02.542Z,15.59
2023-05-14T03:53:02.544Z,15.59
2023-05-14T03:54:02.553Z,15.55
2023-05-14T03:55:02.567Z,15.57
2023-05-14T03:56:02.552Z,15.59
2023-05-14T03:57:02.552Z,15.55
2023-05-14T03:58:02.537Z,15.49
2023-05-14T03:59:02.521Z,15.49
2023-05-14T04:00:02.541Z,15.58
2023-05-14T04:01:02.539Z,15.54
2023-05-14T04:02:02.545Z,15.54
2023-05-14T04:03:02.664Z,15.57
2023-05-14T04:04:02.597Z,15.52
2023-05-14T04:05:02.592Z,15.59
2023-05-14T04:06:02.518Z,15.55
2023-05-14T04:07:02.533Z,15.58
2023-05-14T04:08:02.538Z,15.55
2023-05-14T04:09:02.537Z,15.49
2023-05-14T04:10:04.303Z,15.47
2023-05-14T04:11:02.503Z,15.51
2023-05-14T04:12:02.526Z,15.49
2023-05-14T04:13:02.512Z,15.44
2023-05-14T04:14:02.508Z,15.52
2023-05-14T04:15:02.497Z,15.44
2023-05-14T04:16:02.578Z,15.51
2023-05-14T04:17:02.508Z,15.46
2023-05-14T04:18:02.557Z,15.57
2023-05-14T04:19:02.591Z,15.52
2023-05-14T04:20:02.491Z,15.51
2023-05-14T04:21:02.487Z,15.49
2023-05-14T04:22:02.502Z,15.55
2023-05-14T04:23:02.494Z,15.52
2023-05-14T04:24:02.514Z,15.57
2023-05-14T04:25:02.492Z,15.55
2023-05-14T04:26:02.487Z,15.46
2023-05-14T04:27:02.518Z,15.49
2023-05-14T04:28:02.493Z,15.47
2023-05-14T04:29:02.487Z,15.51
2023-05-14T04:30:02.495Z,15.54
2023-05-14T04:31:02.476Z,15.47
2023-05-14T04:32:02.517Z,15.51
2023-05-14T04:33:02.497Z,15.51
2023-05-14T04:34:02.480Z,15.54
2023-05-14T04:35:02.473Z,15.47
2023-05-14T04:36:02.472Z,15.39
2023-05-14T04:37:02.475Z,15.46
2023-05-14T04:38:02.486Z,15.37
2023-05-14T04:39:02.491Z,15.36
2023-05-14T04:40:02.539Z,15.36
2023-05-14T04:41:02.478Z,15.40
2023-05-14T04:42:02.449Z,15.39
2023-05-14T04:43:02.467Z,15.36
2023-05-14T04:44:02.460Z,15.37
2023-05-14T04:45:02.475Z,15.42
2023-05-14T04:46:02.515Z,15.39
2023-05-14T04:47:02.462Z,15.36
2023-05-14T04:48:02.511Z,15.36
2023-05-14T04:49:02.461Z,15.33
2023-05-14T04:50:02.488Z,15.37
2023-05-14T04:51:03.254Z,15.36
2023-05-14T04:52:02.485Z,15.40
2023-05-14T04:53:02.462Z,15.36
2023-05-14T04:54:02.487Z,15.44
2023-05-14T04:55:02.445Z,15.42
2023-05-14T04:56:02.426Z,15.44
2023-05-14T04:57:02.423Z,15.44
2023-05-14T04:58:02.422Z,15.44
2023-05-14T04:59:02.438Z,15.46
2023-05-14T05:00:02.444Z,15.47
2023-05-14T05:01:02.451Z,15.47
2023-05-14T05:02:02.439Z,15.55
2023-05-14T05:03:02.517Z,15.47
2023-05-14T05:04:02.494Z,15.51
2023-05-14T05:05:02.425Z,15.57
2023-05-14T05:06:02.430Z,15.59
2023-05-14T05:07:02.413Z,15.57
2023-05-14T05:08:02.417Z,15.55
2023-05-14T05:09:02.481Z,15.59
2023-05-14T05:10:02.441Z,15.61
2023-05-14T05:11:02.408Z,15.59
2023-05-14T05:12:02.416Z,15.57
2023-05-14T05:13:02.445Z,15.59
2023-05-14T05:14:02.434Z,15.57
2023-05-14T05:15:02.420Z,15.61
2023-05-14T05:16:02.430Z,15.64
2023-05-14T05:17:02.405Z,15.58
2023-05-14T05:18:02.493Z,15.58
2023-05-14T05:19:02.434Z,15.55
2023-05-14T05:20:02.396Z,15.58
2023-05-14T05:21:02.389Z,15.57
2023-05-14T05:22:02.425Z,15.58
2023-05-14T05:23:02.404Z,15.58
2023-05-14T05:24:02.407Z,15.57
2023-05-14T05:25:02.420Z,15.65
2023-05-14T05:26:02.415Z,15.72
2023-05-14T05:27:02.389Z,15.72
2023-05-14T05:28:02.432Z,15.73
2023-05-14T05:29:02.406Z,15.73
2023-05-14T05:30:02.397Z,15.77
2023-05-14T05:31:02.429Z,15.84
2023-05-14T05:32:02.402Z,15.86
2023-05-14T05:33:02.407Z,15.90
2023-05-14T05:34:02.393Z,16.01
2023-05-14T05:35:02.389Z,16.05
2023-05-14T05:36:02.377Z,16.08
2023-05-14T05:37:02.403Z,16.09
2023-05-14T05:38:02.470Z,16.17
2023-05-14T05:39:02.425Z,16.17
2023-05-14T05:40:02.420Z,16.31
2023-05-14T05:41:02.388Z,16.31
2023-05-14T05:42:02.393Z,16.31
2023-05-14T05:43:02.388Z,16.31
2023-05-14T05:44:02.391Z,16.31
2023-05-14T05:45:02.439Z,16.36
2023-05-14T05:46:02.434Z,16.39
2023-05-14T05:47:02.531Z,16.35
2023-05-14T05:48:02.394Z,16.47
2023-05-14T05:49:02.389Z,16.43
2023-05-14T05:50:02.542Z,16.47
2023-05-14T05:51:02.385Z,16.61
2023-05-14T05:52:02.388Z,16.57
2023-05-14T05:53:02.388Z,16.64
2023-05-14T05:54:02.404Z,16.68
2023-05-14T05:55:02.412Z,16.57
2023-05-14T05:56:02.398Z,16.61
2023-05-14T05:57:02.408Z,16.61
2023-05-14T05:58:02.425Z,16.56
2023-05-14T05:59:02.424Z,16.61
2023-05-14T06:00:02.420Z,16.60
2023-05-14T06:01:02.450Z,16.56
2023-05-14T06:02:02.462Z,16.60
2023-05-14T06:03:02.457Z,16.57
2023-05-14T06:04:02.414Z,16.54
2023-05-14T06:05:02.439Z,16.58
2023-05-14T06:06:02.408Z,16.56
2023-05-14T06:07:02.403Z,16.54
2023-05-14T06:08:02.435Z,16.60
2023-05-14T06:09:02.409Z,16.71
2023-05-14T06:10:02.452Z,16.71
2023-05-14T06:11:02.408Z,16.79
2023-05-14T06:12:02.427Z,16.94
2023-05-14T06:13:02.412Z,16.97
2023-05-14T06:14:02.421Z,16.97
2023-05-14T06:15:02.439Z,16.99
2023-05-14T06:16:02.441Z,17.05
2023-05-14T06:17:02.581Z,17.04
2023-05-14T06:18:02.491Z,17.04
2023-05-14T06:19:02.465Z,17.02
2023-05-14T06:20:02.468Z,17.01
2023-05-14T06:21:02.475Z,17.06
2023-05-14T06:22:02.441Z,17.05
2023-05-14T06:23:02.452Z,17.04
2023-05-14T06:24:02.446Z,17.04
2023-05-14T06:25:02.444Z,17.01
2023-05-14T06:26:02.442Z,17.06
2023-05-14T06:27:02.443Z,17.04
2023-05-14T06:28:02.438Z,17.04
2023-05-14T06:29:02.465Z,16.96
2023-05-14T06:30:03.022Z,16.91
2023-05-14T06:31:02.434Z,16.83
2023-05-14T06:32:02.501Z,16.83
2023-05-14T06:33:02.468Z,16.84
2023-05-14T06:34:02.451Z,16.93
2023-05-14T06:35:02.464Z,16.94
2023-05-14T06:36:02.456Z,16.97
2023-05-14T06:37:02.460Z,16.93
2023-05-14T06:38:02.450Z,16.97
2023-05-14T06:39:02.508Z,16.99
2023-05-14T06:40:02.459Z,17.02
2023-05-14T06:41:02.461Z,17.02
2023-05-14T06:42:02.479Z,17.05
2023-05-14T06:43:02.449Z,17.08
2023-05-14T06:44:02.449Z,17.08
2023-05-14T06:45:02.451Z,17.12
2023-05-14T06:46:02.534Z,17.14
2023-05-14T06:47:02.439Z,17.09
2023-05-14T06:48:02.532Z,17.23
2023-05-14T06:49:02.492Z,17.20
2023-05-14T06:50:02.463Z,17.23
2023-05-14T06:51:02.478Z,17.23
2023-05-14T06:52:02.466Z,17.19
2023-05-14T06:53:02.457Z,17.23
2023-05-14T06:54:02.519Z,17.22
2023-05-14T06:55:02.441Z,17.22
2023-05-14T06:56:02.447Z,17.22
2023-05-14T06:57:02.494Z,17.24
2023-05-14T06:58:02.445Z,17.27
2023-05-14T06:59:02.452Z,17.19
2023-05-14T07:00:03.701Z,17.24
2023-05-14T07:01:02.504Z,17.26
2023-05-14T07:02:02.462Z,17.33
2023-05-14T07:03:02.564Z,17.34
2023-05-14T07:04:02.499Z,17.34
2023-05-14T07:05:02.473Z,17.34
2023-05-14T07:06:02.468Z,17.45
2023-05-14T07:07:02.456Z,17.39
2023-05-14T07:08:02.501Z,17.48
2023-05-14T07:09:02.453Z,17.51
2023-05-14T07:10:02.467Z,17.41
2023-05-14T07:11:02.501Z,17.52
2023-05-14T07:12:02.460Z,17.46
2023-05-14T07:13:02.464Z,17.46
2023-05-14T07:14:02.464Z,17.48
2023-05-14T07:15:02.478Z,17.60
2023-05-14T07:16:02.489Z,17.65
2023-05-14T07:17:02.530Z,17.71
2023-05-14T07:18:02.491Z,17.71
2023-05-14T07:19:02.508Z,17.83
2023-05-14T07:20:02.485Z,17.86
2023-05-14T07:21:02.481Z,17.86
2023-05-14T07:22:02.497Z,17.98
2023-05-14T07:23:02.480Z,18.07
2023-05-14T07:24:02.487Z,18.11
2023-05-14T07:25:02.474Z,18.23
2023-05-14T07:26:02.470Z,18.26
2023-05-14T07:27:02.507Z,18.35
2023-05-14T07:28:02.457Z,18.31
2023-05-14T07:29:02.515Z,18.35
2023-05-14T07:30:02.464Z,18.44
2023-05-14T07:31:02.542Z,18.49
2023-05-14T07:32:02.474Z,18.49
2023-05-14T07:33:02.494Z,18.58
2023-05-14T07:34:02.496Z,18.53
2023-05-14T07:35:02.481Z,18.68
2023-05-14T07:36:02.476Z,18.68
2023-05-14T07:37:02.485Z,18.77
2023-05-14T07:38:02.498Z,18.81
2023-05-14T07:39:02.503Z,18.80
2023-05-14T07:40:02.484Z,18.80
2023-05-14T07:41:02.482Z,18.75
2023-05-14T07:42:02.509Z,18.84
2023-05-14T07:43:02.487Z,18.93
2023-05-14T07:44:02.512Z,18.89
2023-05-14T07:45:02.498Z,18.88
2023-05-14T07:46:02.516Z,18.98
2023-05-14T07:47:02.578Z,18.90
2023-05-14T07:48:02.570Z,18.92
2023-05-14T07:49:02.504Z,19.00
2023-05-14T07:50:02.540Z,19.00
2023-05-14T07:51:02.512Z,19.12
2023-05-14T07:52:02.497Z,19.02
2023-05-14T07:53:02.541Z,19.22
2023-05-14T07:54:02.495Z,19.27
2023-05-14T07:55:02.506Z,19.41
2023-05-14T07:56:02.535Z,19.52
2023-05-14T07:57:02.518Z,19.55
2023-05-14T07:58:02.609Z,19.54
2023-05-14T07:59:02.518Z,19.56
2023-05-14T08:00:02.531Z,19.71
2023-05-14T08:01:02.526Z,19.64
2023-05-14T08:02:02.547Z,19.70
2023-05-14T08:03:02.689Z,19.77
2023-05-14T08:04:02.662Z,19.74
2023-05-14T08:05:02.542Z,19.85
2023-05-14T08:06:02.527Z,19.91
2023-05-14T08:07:02.599Z,20.00
2023-05-14T08:08:02.562Z,19.95
2023-05-14T08:09:02.550Z,20.02
2023-05-14T08:10:02.539Z,20.04
2023-05-14T08:11:02.604Z,19.96
2023-05-14T08:12:02.559Z,20.00
2023-05-14T08:13:02.576Z,20.10
2023-05-14T08:14:02.570Z,20.11
2023-05-14T08:15:02.569Z,20.21
2023-05-14T08:16:02.572Z,20.32
2023-05-14T08:17:02.627Z,20.36
2023-05-14T08:18:02.683Z,20.31
2023-05-14T08:19:02.633Z,20.32
2023-05-14T08:20:02.599Z,20.39
2023-05-14T08:21:03.490Z,20.44
2023-05-14T08:22:02.609Z,20.37
2023-05-14T08:23:02.623Z,20.51
2023-05-14T08:24:02.623Z,20.44
2023-05-14T08:25:02.620Z,20.50
2023-05-14T08:26:02.624Z,20.50
2023-05-14T08:27:02.628Z,20.60
2023-05-14T08:28:02.644Z,20.58
2023-05-14T08:29:02.700Z,20.60
2023-05-14T08:30:02.682Z,20.69
2023-05-14T08:31:02.726Z,20.75
2023-05-14T08:32:11.624Z,20.78
2023-05-14T08:33:02.735Z,20.80
2023-05-14T08:34:02.673Z,20.87
2023-05-14T08:35:02.667Z,20.93
2023-05-14T08:36:02.683Z,20.99
2023-05-14T08:37:02.701Z,21.00
2023-05-14T08:38:02.718Z,21.05
2023-05-14T08:39:02.721Z,21.05
2023-05-14T08:40:02.742Z,20.92
2023-05-14T08:41:02.724Z,20.93
2023-05-14T08:42:02.745Z,20.93
2023-05-14T08:43:02.714Z,20.84
2023-05-14T08:44:02.704Z,20.84
2023-05-14T08:45:02.796Z,20.87
2023-05-14T08:46:02.734Z,20.95
2023-05-14T08:47:02.764Z,20.87
2023-05-14T08:48:02.840Z,20.88
2023-05-14T08:49:02.750Z,20.88
2023-05-14T08:50:02.745Z,20.93
2023-05-14T08:51:02.739Z,20.97
2023-05-14T08:52:02.745Z,21.00
2023-05-14T08:53:02.764Z,21.05
2023-05-14T08:54:02.760Z,20.96
2023-05-14T08:55:02.800Z,21.02
2023-05-14T08:56:02.822Z,20.93
2023-05-14T08:57:02.751Z,21.06
2023-05-14T08:58:02.822Z,20.97
2023-05-14T08:59:02.769Z,20.96
2023-05-14T09:00:02.787Z,20.93
2023-05-14T09:01:02.789Z,20.90
2023-05-14T09:02:02.841Z,20.87
2023-05-14T09:03:02.803Z,20.88
2023-05-14T09:04:02.846Z,20.84
2023-05-14T09:05:02.801Z,20.80
2023-05-14T09:06:02.801Z,20.75
2023-05-14T09:07:02.859Z,20.77
2023-05-14T09:08:02.805Z,20.82
2023-05-14T09:09:02.854Z,20.82
2023-05-14T09:10:02.855Z,20.87
2023-05-14T09:11:02.858Z,20.80
2023-05-14T09:12:02.873Z,20.92
2023-05-14T09:13:02.838Z,21.03
2023-05-14T09:14:02.855Z,21.03
2023-05-14T09:15:02.887Z,21.17
2023-05-14T09:16:02.871Z,21.07
2023-05-14T09:17:02.857Z,21.24
2023-05-14T09:18:02.978Z,21.17
2023-05-14T09:19:02.922Z,21.27
2023-05-14T09:20:02.897Z,21.40
2023-05-14T09:21:02.890Z,21.48
2023-05-14T09:22:02.854Z,21.54
2023-05-14T09:23:02.893Z,21.50
2023-05-14T09:24:02.854Z,21.46
2023-05-14T09:25:02.861Z,21.46
2023-05-14T09:26:02.865Z,21.43
2023-05-14T09:27:02.873Z,21.50
2023-05-14T09:28:03.612Z,21.51
2023-05-14T09:29:02.897Z,21.62
2023-05-14T09:30:02.892Z,21.51
2023-05-14T09:31:02.887Z,21.55
2023-05-14T09:32:02.948Z,21.48
2023-05-14T09:33:02.960Z,21.55
2023-05-14T09:34:02.898Z,21.39
2023-05-14T09:35:02.904Z,21.37
2023-05-14T09:36:02.902Z,21.50
2023-05-14T09:37:02.931Z,21.40
2023-05-14T09:38:02.907Z,21.37
2023-05-14T09:39:02.920Z,21.42
2023-05-14T09:40:02.933Z,21.37
2023-05-14T09:41:02.918Z,21.36
2023-05-14T09:42:02.922Z,21.36
2023-05-14T09:43:02.930Z,21.37
2023-05-14T09:44:04.753Z,21.36
2023-05-14T09:45:02.951Z,21.39
2023-05-14T09:46:02.935Z,21.40
2023-05-14T09:47:02.947Z,21.40
2023-05-14T09:48:03.238Z,21.36
2023-05-14T09:49:02.973Z,21.33
2023-05-14T09:50:02.953Z,21.33
2023-05-14T09:51:04.616Z,21.39
2023-05-14T09:52:02.940Z,21.43
2023-05-14T09:53:02.976Z,21.40
2023-05-14T09:54:02.964Z,21.46
2023-05-14T09:55:02.956Z,21.46
2023-05-14T09:56:02.958Z,21.46
2023-05-14T09:57:02.972Z,21.57
2023-05-14T09:58:02.997Z,21.57
2023-05-14T09:59:02.968Z,21.48
2023-05-14T10:00:02.991Z,21.43
2023-05-14T10:01:03.049Z,21.42
2023-05-14T10:02:02.985Z,21.39
2023-05-14T10:03:03.023Z,21.33
2023-05-14T10:04:03.047Z,21.27
2023-05-14T10:05:03.003Z,21.18
2023-05-14T10:06:03.002Z,21.15
2023-05-14T10:07:02.996Z,21.09
2023-05-14T10:08:03.021Z,21.11
2023-05-14T10:09:03.004Z,21.06
2023-05-14T10:10:03.022Z,21.06
2023-05-14T10:11:03.036Z,21.09
2023-05-14T10:12:03.009Z,20.92
2023-05-14T10:13:03.040Z,20.97
2023-05-14T10:14:03.029Z,20.99
2023-05-14T10:15:03.033Z,20.97
2023-05-14T10:16:03.074Z,20.92
2023-05-14T10:17:03.083Z,20.93
2023-05-14T10:18:03.097Z,20.90
2023-05-14T10:19:03.112Z,21.00
2023-05-14T10:20:03.025Z,20.93
2023-05-14T10:21:03.030Z,20.88
2023-05-14T10:22:03.039Z,20.85
2023-05-14T10:23:03.044Z,20.82
2023-05-14T10:24:03.035Z,20.69
2023-05-14T10:25:03.039Z,20.63
2023-05-14T10:26:03.040Z,20.69
2023-05-14T10:27:03.125Z,20.58
2023-05-14T10:28:03.061Z,20.55
2023-05-14T10:29:03.062Z,20.58
2023-05-14T10:30:03.051Z,20.62
2023-05-14T10:31:03.109Z,20.55
2023-05-14T10:32:03.099Z,20.55
2023-05-14T10:33:03.172Z,20.51
2023-05-14T10:34:03.073Z,20.44
2023-05-14T10:35:03.165Z,20.50
2023-05-14T10:36:03.150Z,20.47
2023-05-14T10:37:03.076Z,20.44
2023-05-14T10:38:03.073Z,20.39
2023-05-14T10:39:03.070Z,20.41
2023-05-14T10:40:03.087Z,20.39
2023-05-14T10:41:03.143Z,20.51
2023-05-14T10:42:03.129Z,20.37
2023-05-14T10:43:03.080Z,20.43
2023-05-14T10:44:03.076Z,20.39
2023-05-14T10:45:03.177Z,20.39
2023-05-14T10:46:03.183Z,20.39
2023-05-14T10:47:03.231Z,20.44
2023-05-14T10:48:03.173Z,20.51
2023-05-14T10:49:03.160Z,20.44
2023-05-14T10:50:03.178Z,20.41
2023-05-14T10:51:03.186Z,20.34
2023-05-14T10:52:03.116Z,20.43
2023-05-14T10:53:03.105Z,20.31
2023-05-14T10:54:03.094Z,20.40
2023-05-14T10:55:03.687Z,20.41
2023-05-14T10:56:03.176Z,20.40
2023-05-14T10:57:03.118Z,20.39
2023-05-14T10:58:03.171Z,20.36
2023-05-14T10:59:03.148Z,20.26
2023-05-14T11:00:03.162Z,20.31
2023-05-14T11:01:03.175Z,20.29
2023-05-14T11:02:03.212Z,20.28
2023-05-14T11:03:03.193Z,20.32
2023-05-14T11:04:03.232Z,20.24
2023-05-14T11:05:03.182Z,20.25
2023-05-14T11:06:03.187Z,20.11
2023-05-14T11:07:03.246Z,20.25
2023-05-14T11:08:03.157Z,20.11
2023-05-14T11:09:03.125Z,20.13
2023-05-14T11:10:03.169Z,20.11
2023-05-14T11:11:03.219Z,20.13
2023-05-14T11:12:03.260Z,20.09
2023-05-14T11:13:03.244Z,20.04
2023-05-14T11:14:03.223Z,20.02
2023-05-14T11:15:03.128Z,20.07
2023-05-14T11:16:11.981Z,19.91
2023-05-14T11:17:03.342Z,19.99
2023-05-14T11:18:03.220Z,19.99
2023-05-14T11:19:03.414Z,19.96
2023-05-14T11:20:03.223Z,19.94
2023-05-14T11:21:03.167Z,19.91
2023-05-14T11:22:03.136Z,19.88
2023-05-14T11:23:03.228Z,20.00
2023-05-14T11:24:03.262Z,19.96
2023-05-14T11:25:03.245Z,19.92
2023-05-14T11:26:03.408Z,19.92
2023-05-14T11:27:03.180Z,19.91
2023-05-14T11:28:03.243Z,19.86
2023-05-14T11:29:03.212Z,20.02
2023-05-14T11:30:03.290Z,19.94
2023-05-14T11:31:03.281Z,19.86
2023-05-14T11:32:03.399Z,19.91
2023-05-14T11:33:03.192Z,19.86
2023-05-14T11:34:03.215Z,19.85
2023-05-14T11:35:03.285Z,19.89
2023-05-14T11:36:03.161Z,19.89
2023-05-14T11:37:03.284Z,19.92
2023-05-14T11:38:03.161Z,20.04
2023-05-14T11:39:03.293Z,19.96
2023-05-14T11:40:03.217Z,20.00
2023-05-14T11:41:03.293Z,19.99
2023-05-14T11:42:03.243Z,19.99
2023-05-14T11:43:03.324Z,20.00
2023-05-14T11:44:03.277Z,19.96
2023-05-14T11:45:03.191Z,19.99
2023-05-14T11:46:03.287Z,20.00
2023-05-14T11:47:03.295Z,20.04
2023-05-14T11:48:03.357Z,20.07
2023-05-14T11:49:03.309Z,19.89
2023-05-14T11:50:03.189Z,19.94
2023-05-14T11:51:03.174Z,20.00
2023-05-14T11:52:03.211Z,19.94
2023-05-14T11:53:03.269Z,19.95
2023-05-14T11:54:03.195Z,19.88
2023-05-14T11:55:03.193Z,19.95
2023-05-14T11:56:03.390Z,19.85
2023-05-14T11:57:03.198Z,19.89
2023-05-14T11:58:03.203Z,19.94
2023-05-14T11:59:03.193Z,19.92
2023-05-14T12:00:03.219Z,19.89
2023-05-14T12:01:03.199Z,19.88
2023-05-14T12:02:04.212Z,19.85
2023-05-14T12:03:03.273Z,19.92
2023-05-14T12:04:03.296Z,19.89
2023-05-14T12:05:03.296Z,19.88
2023-05-14T12:06:03.231Z,19.86
2023-05-14T12:07:03.342Z,19.91
2023-05-14T12:08:03.310Z,19.96
2023-05-14T12:09:03.236Z,19.99
2023-05-14T12:10:03.225Z,19.92
2023-05-14T12:11:03.201Z,19.96
2023-05-14T12:12:03.214Z,19.94
2023-05-14T12:13:03.234Z,20.02
2023-05-14T12:14:03.233Z,20.02
2023-05-14T12:15:03.213Z,19.96
2023-05-14T12:16:03.296Z,20.10
2023-05-14T12:17:03.202Z,20.14
2023-05-14T12:18:03.843Z,20.09
2023-05-14T12:19:03.237Z,20.16
2023-05-14T12:20:03.329Z,20.21
2023-05-14T12:21:03.265Z,20.14
2023-05-14T12:22:03.373Z,20.16
2023-05-14T12:23:03.298Z,20.18
2023-05-14T12:24:03.336Z,20.24
2023-05-14T12:25:03.238Z,20.18
2023-05-14T12:26:03.241Z,20.24
2023-05-14T12:27:03.219Z,20.22
2023-05-14T12:28:03.229Z,20.34
2023-05-14T12:29:03.226Z,20.26
2023-05-14T12:30:19.072Z,20.24
2023-05-14T12:31:03.312Z,20.28
2023-05-14T12:32:03.244Z,20.31
2023-05-14T12:33:03.279Z,20.29
2023-05-14T12:34:03.360Z,20.31
2023-05-14T12:35:03.241Z,20.29
2023-05-14T12:36:17.502Z,20.28
2023-05-14T12:37:03.357Z,20.25
2023-05-14T12:38:03.248Z,20.24
2023-05-14T12:39:03.252Z,20.31
2023-05-14T12:40:03.281Z,20.24
2023-05-14T12:41:03.253Z,20.43
2023-05-14T12:42:03.355Z,20.29
2023-05-14T12:43:03.344Z,20.39
2023-05-14T12:44:03.472Z,20.40
2023-05-14T12:45:03.268Z,20.40
2023-05-14T12:46:03.285Z,20.37
2023-05-14T12:47:03.314Z,20.31
2023-05-14T12:48:03.317Z,20.37
2023-05-14T12:49:03.265Z,20.29
2023-05-14T12:50:03.272Z,20.40
2023-05-14T12:51:03.276Z,20.50
2023-05-14T12:52:19.504Z,20.36
2023-05-14T12:53:03.301Z,20.36
2023-05-14T12:54:03.295Z,20.37
2023-05-14T12:55:03.309Z,20.32
2023-05-14T12:56:03.278Z,20.39
2023-05-14T12:57:03.285Z,20.41
2023-05-14T12:58:03.291Z,20.40
2023-05-14T12:59:03.297Z,20.48
2023-05-14T13:00:03.315Z,20.43